Time;durP1;ratioP1;P1;durP2;ratioP2;P2;SDS_P1;SDS_P2;PMS_P1;PMS_P2;Temp;Humidity;BMP_temperature;BMP_pressure;BME280_temperature;BME280_humidity;BME280_pressure;Samples;Min_cycle;Max_cycle;Signal;HPM_P1;HPM_P2
2021/12/20 00:02:04;;;;;;;1.37;0.90;;;;;;;5.55;70.85;100216.12;1913372;75;21208;-62
2021/12/20 00:04:33;;;;;;;2.47;1.00;;;;;;;5.58;70.90;100215.17;1913650;75;21100;-63
2021/12/20 00:07:01;;;;;;;1.37;1.10;;;;;;;5.60;70.91;100209.45;1912131;75;21518;-63
2021/12/20 00:09:30;;;;;;;3.40;1.05;;;;;;;5.64;70.96;100208.46;1912275;75;21168;-63
2021/12/20 00:11:59;;;;;;;2.02;0.90;;;;;;;5.67;70.95;100205.78;1913045;75;21128;-62
2021/12/20 00:14:28;;;;;;;1.05;0.88;;;;;;;5.71;70.94;100199.56;1912528;74;21070;-63
2021/12/20 00:16:56;;;;;;;3.30;0.90;;;;;;;5.78;71.01;100194.58;1913385;75;21591;-62
2021/12/20 00:19:26;;;;;;;1.05;0.47;;;;;;;5.87;70.94;100186.09;1913657;73;21117;-66
2021/12/20 00:21:54;;;;;;;1.47;1.07;;;;;;;5.94;70.86;100179.80;1912727;75;21030;-66
2021/12/20 00:24:23;;;;;;;1.70;0.82;;;;;;;6.00;70.81;100188.78;1913070;75;21042;-66
2021/12/20 00:26:52;;;;;;;2.15;1.00;;;;;;;6.06;70.65;100187.28;1912909;75;21054;-66
2021/12/20 00:29:21;;;;;;;2.25;1.07;;;;;;;6.10;70.63;100179.75;1912308;75;21574;-64
2021/12/20 00:31:50;;;;;;;2.30;0.88;;;;;;;6.13;70.62;100175.75;1912420;75;21026;-66
2021/12/20 00:34:19;;;;;;;1.32;0.80;;;;;;;6.18;70.68;100176.48;1913600;75;21124;-60
2021/12/20 00:36:56;;;;;;;4.28;1.42;;;;;;;6.22;70.76;100173.78;1912296;75;21105;-60
2021/12/20 00:42:07;;;;;;;2.22;1.17;;;;;;;6.28;70.69;100167.05;1912811;75;21242;-59
2021/12/20 00:44:36;;;;;;;2.20;0.90;;;;;;;6.31;70.67;100176.12;1913715;75;20995;-61
2021/12/20 00:47:05;;;;;;;5.17;2.22;;;;;;;6.34;70.77;100165.12;1913572;75;21468;-61
2021/12/20 00:49:34;;;;;;;5.45;1.98;;;;;;;6.38;70.87;100158.00;1912470;75;21488;-65
2021/12/20 00:52:03;;;;;;;3.40;1.47;;;;;;;6.42;70.82;100154.84;1913687;74;21002;-66
2021/12/20 00:54:32;;;;;;;6.90;2.40;;;;;;;6.42;70.69;100151.80;1913169;73;21140;-66
2021/12/20 00:57:01;;;;;;;5.12;2.00;;;;;;;6.42;70.58;100152.23;1912737;75;21155;-69
2021/12/20 00:59:30;;;;;;;2.40;1.67;;;;;;;6.37;70.51;100153.23;1883087;75;21058;-66
2021/12/20 01:01:59;;;;;;;2.22;1.65;;;;;;;6.36;70.52;100156.77;1913550;75;21026;-67
2021/12/20 01:04:28;;;;;;;2.35;1.82;;;;;;;6.37;70.51;100151.92;1912615;75;21003;-64
2021/12/20 01:06:57;;;;;;;1.92;1.10;;;;;;;6.40;70.45;100151.42;1912275;75;21457;-64
2021/12/20 01:09:25;;;;;;;3.08;0.82;;;;;;;6.38;70.40;100146.23;1907268;75;21457;-64
2021/12/20 01:12:01;;;;;;;2.50;1.15;;;;;;;6.38;70.42;100142.31;1913576;75;21465;-66
2021/12/20 01:14:27;;;;;;;2.17;0.80;;;;;;;6.38;70.41;100142.31;1911631;74;21078;-64
2021/12/20 01:17:01;;;;;;;2.33;1.05;;;;;;;6.37;70.38;100144.55;1913694;75;21187;-62
2021/12/20 01:19:25;;;;;;;2.33;1.07;;;;;;;6.39;70.36;100149.27;1912099;73;21124;-65
2021/12/20 01:21:54;;;;;;;1.50;1.00;;;;;;;6.38;70.34;100147.55;1913122;75;21136;-65
2021/12/20 01:24:23;;;;;;;2.83;1.00;;;;;;;6.39;70.31;100150.58;1913331;73;21138;-63
2021/12/20 01:26:52;;;;;;;3.17;0.98;;;;;;;6.38;70.37;100144.92;1919343;73;21433;-64
2021/12/20 01:29:21;;;;;;;3.55;1.30;;;;;;;6.38;70.38;100130.55;1913787;75;21074;-63
2021/12/20 01:31:50;;;;;;;6.20;2.47;;;;;;;6.38;70.39;100127.93;1913382;75;21473;-63
2021/12/20 01:34:19;;;;;;;7.50;2.77;;;;;;;6.37;70.54;100122.31;1913411;75;21539;-63
2021/12/20 01:36:47;;;;;;;4.65;1.98;;;;;;;6.36;70.84;100121.90;1911124;75;21020;-63
2021/12/20 01:39:16;;;;;;;5.15;1.50;;;;;;;6.35;70.82;100122.81;1912220;75;21026;-65
2021/12/20 01:41:46;;;;;;;4.25;1.20;;;;;;;6.34;70.73;100122.41;1912766;75;21892;-62
2021/12/20 01:44:15;;;;;;;3.85;1.50;;;;;;;6.32;70.87;100127.67;1913764;75;21096;-62
2021/12/20 01:46:43;;;;;;;3.77;1.40;;;;;;;6.28;70.92;100122.60;1921312;73;21018;-62
2021/12/20 01:49:16;;;;;;;5.08;1.40;;;;;;;6.22;71.01;100114.96;1917664;73;21104;-62
2021/12/20 01:51:51;;;;;;;3.67;1.30;;;;;;;6.17;71.05;100105.48;1912657;75;21114;-61
2021/12/20 01:54:16;;;;;;;2.58;1.15;;;;;;;6.10;71.41;100096.11;1907235;75;21089;-61
2021/12/20 01:56:45;;;;;;;2.37;1.20;;;;;;;6.05;71.56;100088.01;1913562;75;21568;-61
2021/12/20 01:59:14;;;;;;;3.70;1.30;;;;;;;5.99;71.77;100083.40;1914496;75;21627;-60
2021/12/20 02:01:46;;;;;;;2.90;1.00;;;;;;;5.92;71.54;100075.73;1911451;75;21031;-66
2021/12/20 02:04:15;;;;;;;3.00;1.00;;;;;;;5.82;71.51;100065.17;1912604;75;21026;-66
2021/12/20 02:06:47;;;;;;;1.52;0.80;;;;;;;5.71;71.56;100071.56;1913487;75;21151;-63
2021/12/20 02:09:17;;;;;;;2.15;0.95;;;;;;;5.62;71.66;100078.36;1913285;75;21014;-64
2021/12/20 02:11:48;;;;;;;4.45;1.17;;;;;;;5.59;71.74;100077.17;1913040;75;21022;-62
2021/12/20 02:14:19;;;;;;;5.00;1.92;;;;;;;5.54;71.79;100071.22;1912475;74;21136;-62
2021/12/20 02:16:48;;;;;;;4.10;1.37;;;;;;;5.52;71.96;100069.11;1913160;75;21034;-61
2021/12/20 02:19:18;;;;;;;2.15;1.07;;;;;;;5.52;72.06;100076.48;1913343;75;21171;-61
2021/12/20 02:21:47;;;;;;;2.40;1.00;;;;;;;5.52;72.23;100075.63;1913025;75;21422;-62
2021/12/20 02:24:15;;;;;;;1.32;0.93;;;;;;;5.53;72.41;100073.41;1913730;75;21038;-63
2021/12/20 02:26:45;;;;;;;3.67;1.05;;;;;;;5.52;72.39;100075.63;1913737;75;21070;-62
2021/12/20 02:29:27;;;;;;;1.45;1.00;;;;;;;5.51;72.37;100076.52;1909529;75;21527;-64
2021/12/20 02:37:27;;;;;;;4.20;2.35;;;;;;;5.50;72.44;100073.52;1880255;76;21026;-65
2021/12/20 02:39:51;;;;;;;3.50;1.10;;;;;;;5.47;72.49;100075.75;1889416;75;21191;-64
2021/12/20 02:42:25;;;;;;;5.03;1.35;;;;;;;5.46;72.55;100070.14;1859904;77;21053;-63
2021/12/20 02:45:07;;;;;;;3.22;1.15;;;;;;;5.45;72.58;100067.56;1859988;76;21093;-62
2021/12/20 02:47:28;;;;;;;2.92;1.20;;;;;;;5.43;72.66;100063.69;1860081;76;21081;-62
2021/12/20 02:49:53;;;;;;;4.00;1.52;;;;;;;5.43;72.70;100062.38;1859290;76;21098;-61
2021/12/20 02:52:22;;;;;;;2.87;1.30;;;;;;;5.43;72.74;100065.00;1859728;77;21571;-66
2021/12/20 02:54:52;;;;;;;3.15;1.15;;;;;;;5.45;72.74;100059.73;1893390;76;21398;-62
2021/12/20 02:57:22;;;;;;;3.12;1.27;;;;;;;5.46;72.70;100062.73;1882891;76;21526;-63
2021/12/20 02:59:50;;;;;;;2.65;1.10;;;;;;;5.47;72.74;100062.70;1858900;77;21505;-61
2021/12/20 03:02:21;;;;;;;3.70;1.25;;;;;;;5.49;72.79;100056.12;1858975;77;21412;-63
2021/12/20 03:04:50;;;;;;;2.42;1.10;;;;;;;5.53;72.81;100052.52;1858767;77;21052;-63
2021/12/20 03:07:26;;;;;;;5.00;1.10;;;;;;;5.56;72.79;100047.22;1858877;77;21494;-64
2021/12/20 03:09:55;;;;;;;5.05;0.98;;;;;;;5.61;72.76;100049.25;1857670;75;21049;-62
2021/12/20 03:12:24;;;;;;;3.55;1.12;;;;;;;5.65;72.77;100052.17;1858537;75;21134;-62
2021/12/20 03:14:56;;;;;;;3.80;1.22;;;;;;;5.68;72.72;100050.78;1858722;75;21035;-62
2021/12/20 03:17:22;;;;;;;1.40;1.00;;;;;;;5.71;72.70;100053.73;1858299;74;21069;-62
2021/12/20 03:19:51;;;;;;;2.70;1.20;;;;;;;5.74;72.70;100049.28;1858961;77;21507;-62
2021/12/20 03:22:20;;;;;;;4.65;1.15;;;;;;;5.80;72.65;100047.78;1858917;77;21061;-62
2021/12/20 03:24:49;;;;;;;3.00;1.00;;;;;;;5.85;72.52;100041.58;1859135;77;21423;-61
2021/12/20 03:27:18;;;;;;;1.67;0.88;;;;;;;5.89;72.46;100039.27;1858884;77;21455;-62
2021/12/20 03:29:46;;;;;;;2.22;0.98;;;;;;;5.93;72.49;100040.87;1859102;77;21236;-60
2021/12/20 03:32:15;;;;;;;4.60;1.47;;;;;;;5.99;72.39;100035.48;1858845;77;21087;-65
2021/12/20 03:34:44;;;;;;;1.85;1.00;;;;;;;6.06;72.27;100039.62;1859029;77;21478;-64
2021/12/20 03:37:13;;;;;;;3.90;1.07;;;;;;;6.12;72.17;100034.22;1858916;77;21053;-61
2021/12/20 03:39:42;;;;;;;7.92;1.00;;;;;;;6.17;72.12;100034.89;1858987;77;21624;-62
2021/12/20 03:42:11;;;;;;;1.72;1.00;;;;;;;6.24;72.07;100032.95;1858993;77;21126;-61
2021/12/20 03:44:44;;;;;;;2.20;1.10;;;;;;;6.31;72.03;100033.62;1858828;77;21099;-61
2021/12/20 03:47:12;;;;;;;3.12;1.32;;;;;;;6.36;72.00;100033.87;1868032;74;21026;-61
2021/12/20 03:49:42;;;;;;;4.90;1.55;;;;;;;6.43;71.88;100038.88;1913223;74;21095;-60
2021/12/20 03:52:12;;;;;;;2.17;1.60;;;;;;;6.47;71.83;100044.41;1935390;74;21087;-61
2021/12/20 03:54:40;;;;;;;1.50;1.15;;;;;;;6.49;71.79;100043.47;1935529;74;21008;-60
2021/12/20 03:57:09;;;;;;;2.17;0.98;;;;;;;6.53;71.74;100042.92;1925769;74;21029;-61
2021/12/20 03:59:38;;;;;;;2.08;0.95;;;;;;;6.56;71.73;100044.10;1892651;76;21490;-60
2021/12/20 04:02:07;;;;;;;2.10;0.65;;;;;;;6.60;71.68;100055.31;1892434;76;21069;-60
2021/12/20 04:04:36;;;;;;;3.77;1.10;;;;;;;6.62;71.62;100059.61;1892513;76;21413;-60
2021/12/20 04:07:05;;;;;;;3.65;0.98;;;;;;;6.65;71.55;100061.26;1892418;76;21463;-62
2021/12/20 04:09:34;;;;;;;3.12;0.90;;;;;;;6.66;71.52;100064.26;1892365;75;21013;-62
2021/12/20 04:12:03;;;;;;;1.65;0.88;;;;;;;6.67;71.50;100060.75;1892471;74;21122;-60
2021/12/20 04:14:32;;;;;;;2.75;0.90;;;;;;;6.70;71.46;100065.89;1892541;74;21013;-62
2021/12/20 04:17:01;;;;;;;1.12;0.90;;;;;;;6.72;71.38;100065.38;1892377;76;21018;-61
2021/12/20 04:19:51;;;;;;;2.75;0.95;;;;;;;6.74;71.33;100064.88;1844829;77;21205;-62
2021/12/20 04:22:19;;;;;;;2.15;0.70;;;;;;;6.73;71.29;100061.41;1850934;77;21490;-61
2021/12/20 04:24:48;;;;;;;1.15;0.82;;;;;;;6.75;71.25;100070.05;1851024;77;21514;-61
2021/12/20 04:27:17;;;;;;;2.72;1.10;;;;;;;6.78;71.22;100065.16;1850977;77;21084;-61
2021/12/20 04:29:47;;;;;;;2.33;0.90;;;;;;;6.79;71.18;100072.55;1850998;77;21482;-61
2021/12/20 04:32:16;;;;;;;2.05;1.17;;;;;;;6.81;71.18;100074.69;1851062;76;21099;-60
2021/12/20 04:34:45;;;;;;;1.55;0.72;;;;;;;6.81;71.15;100077.30;1850864;77;21150;-61
2021/12/20 04:37:13;;;;;;;3.10;0.85;;;;;;;6.82;71.15;100082.92;1850966;77;21073;-61
2021/12/20 04:39:43;;;;;;;1.17;0.78;;;;;;;6.82;71.13;100082.45;1850940;77;21068;-61
2021/12/20 04:42:11;;;;;;;1.40;0.70;;;;;;;6.81;71.12;100084.69;1851011;77;21141;-61
2021/12/20 04:44:40;;;;;;;2.12;0.60;;;;;;;6.79;71.14;100084.33;1851204;77;21564;-61
2021/12/20 04:47:09;;;;;;;1.52;0.70;;;;;;;6.78;71.12;100083.94;1850898;76;21584;-61
2021/12/20 04:49:38;;;;;;;3.50;1.25;;;;;;;6.77;71.15;100084.40;1851071;76;21044;-60
2021/12/20 04:52:07;;;;;;;3.05;0.90;;;;;;;6.78;71.18;100082.17;1850947;77;21478;-60
2021/12/20 04:54:35;;;;;;;1.27;0.82;;;;;;;6.77;71.13;100081.78;1850929;77;21469;-60
2021/12/20 04:57:05;;;;;;;1.90;1.07;;;;;;;6.76;71.15;100079.59;1843589;77;21493;-61
2021/12/20 04:59:34;;;;;;;5.30;1.47;;;;;;;6.77;71.04;100083.09;1819901;79;21032;-61
2021/12/20 05:02:03;;;;;;;2.33;0.90;;;;;;;6.78;70.98;100075.63;1820127;79;21028;-60
2021/12/20 05:04:32;;;;;;;4.05;0.72;;;;;;;6.78;70.80;100078.24;1820091;78;21122;-61
2021/12/20 05:07:03;;;;;;;4.40;0.90;;;;;;;6.78;70.68;100075.63;1820001;79;21103;-61
2021/12/20 05:09:37;;;;;;;3.17;1.50;;;;;;;6.79;70.63;100069.50;1820140;79;21141;-60
2021/12/20 05:12:10;;;;;;;3.72;1.10;;;;;;;6.79;70.48;100081.70;1819441;77;21095;-64
2021/12/20 05:14:32;;;;;;;4.00;0.93;;;;;;;6.76;70.19;100069.59;1818799;79;21080;-63
2021/12/20 05:17:01;;;;;;;1.55;0.88;;;;;;;6.76;70.23;100073.52;1819978;79;21534;-63
2021/12/20 05:19:29;;;;;;;1.95;0.98;;;;;;;6.74;70.18;100070.95;1820079;78;21498;-63
2021/12/20 05:21:58;;;;;;;6.42;1.57;;;;;;;6.73;70.05;100067.95;1820088;78;21564;-62
2021/12/20 05:24:27;;;;;;;6.50;1.22;;;;;;;6.76;69.82;100069.59;1819877;79;21102;-62
2021/12/20 05:26:56;;;;;;;7.97;1.60;;;;;;;6.78;69.75;100080.02;1819843;79;21071;-62
2021/12/20 05:29:25;;;;;;;13.80;2.35;;;;;;;6.77;69.35;100077.86;1842715;77;21063;-63
2021/12/20 05:31:54;;;;;;;9.60;1.62;;;;;;;6.78;69.38;100079.55;1850831;77;21133;-61
2021/12/20 05:34:23;;;;;;;4.20;1.45;;;;;;;6.77;69.27;100083.09;1829010;77;21563;-64
2021/12/20 05:36:52;;;;;;;5.45;1.25;;;;;;;6.79;69.06;100079.09;1820585;77;21488;-65
2021/12/20 05:39:21;;;;;;;2.65;1.07;;;;;;;6.76;68.50;100080.91;1819652;79;21160;-63
2021/12/20 05:41:50;;;;;;;3.27;0.85;;;;;;;6.77;67.88;100081.78;1820058;79;21062;-62
2021/12/20 05:44:18;;;;;;;3.95;1.52;;;;;;;6.76;67.36;100078.75;1820195;79;21128;-62
2021/12/20 05:49:37;;;;;;;3.98;1.60;;;;;;;6.78;66.95;100075.63;1889798;75;21116;-61
2021/12/20 05:52:06;;;;;;;4.92;1.40;;;;;;;6.77;66.60;100081.78;1891797;76;21034;-62
2021/12/20 05:54:35;;;;;;;4.00;0.95;;;;;;;6.76;65.79;100078.75;1891946;76;21038;-63
2021/12/20 05:57:04;;;;;;;4.95;1.40;;;;;;;6.75;65.91;100073.10;1895541;75;21028;-65
2021/12/20 05:59:33;;;;;;;2.72;1.50;;;;;;;6.75;65.87;100080.95;1912234;75;21034;-64
2021/12/20 06:02:02;;;;;;;1.45;0.82;;;;;;;6.73;65.68;100082.77;1947848;74;21023;-63
2021/12/20 06:04:31;;;;;;;2.72;1.00;;;;;;;6.72;64.91;100075.84;1912084;75;21078;-66
2021/12/20 06:07:00;;;;;;;2.30;0.90;;;;;;;6.71;64.77;100069.77;1920254;74;21083;-63
2021/12/20 06:09:29;;;;;;;3.02;1.32;;;;;;;6.73;64.11;100076.23;1912268;75;21102;-62
2021/12/20 06:11:59;;;;;;;6.08;1.30;;;;;;;6.75;64.58;100077.03;1912238;75;21092;-62
2021/12/20 06:14:29;;;;;;;4.22;1.77;;;;;;;6.73;64.01;100075.80;1924221;74;21043;-64
2021/12/20 06:16:59;;;;;;;2.20;1.27;;;;;;;6.73;64.20;100085.39;1947824;74;21092;-62
2021/12/20 06:19:28;;;;;;;2.65;0.62;;;;;;;6.75;64.26;100075.72;1947723;74;21086;-64
2021/12/20 06:21:57;;;;;;;5.67;0.93;;;;;;;6.76;64.03;100073.05;1947670;74;21523;-65
2021/12/20 06:24:26;;;;;;;2.92;0.85;;;;;;;6.80;63.34;100083.43;1960929;73;21118;-63
2021/12/20 06:26:55;;;;;;;2.77;1.00;;;;;;;6.80;63.07;100081.66;1941492;74;21454;-64
2021/12/20 06:29:24;;;;;;;3.85;1.77;;;;;;;6.81;62.69;100078.16;1941316;74;21107;-62
2021/12/20 06:31:53;;;;;;;9.38;1.90;;;;;;;6.86;62.80;100081.47;1881934;75;21460;-63
2021/12/20 06:34:22;;;;;;;6.97;3.42;;;;;;;6.88;62.36;100086.20;1897358;75;21096;-65
2021/12/20 06:36:51;;;;;;;3.42;2.47;;;;;;;6.89;62.33;100090.50;1897420;76;21135;-63
2021/12/20 06:39:19;;;;;;;3.42;1.87;;;;;;;6.93;62.68;100096.06;1913302;74;21015;-61
2021/12/20 06:41:48;;;;;;;5.15;1.62;;;;;;;6.98;62.43;100101.13;1926429;74;21004;-63
2021/12/20 06:44:18;;;;;;;5.17;2.05;;;;;;;7.01;62.41;100105.38;1927615;74;21518;-64
2021/12/20 06:46:47;;;;;;;7.40;1.75;;;;;;;7.03;62.44;100108.83;1918067;75;21108;-63
2021/12/20 06:49:16;;;;;;;3.83;0.98;;;;;;;7.01;62.16;100106.69;1918702;73;21571;-62
2021/12/20 06:51:46;;;;;;;9.93;1.65;;;;;;;7.04;62.24;100106.59;1918797;75;21038;-62
2021/12/20 06:54:18;;;;;;;3.67;1.45;;;;;;;7.09;62.41;100105.98;1918455;74;21231;-64
2021/12/20 06:56:47;;;;;;;8.68;2.02;;;;;;;7.14;62.56;100104.08;1916488;74;21097;-69
2021/12/20 06:59:16;;;;;;;9.20;2.92;;;;;;;7.17;62.39;100101.33;1918269;75;21063;-65
2021/12/20 07:01:45;;;;;;;5.47;2.52;;;;;;;7.21;62.42;100106.88;1918339;75;21454;-66
2021/12/20 07:04:15;;;;;;;6.33;2.15;;;;;;;7.27;62.60;100113.20;1918419;75;21117;-67
2021/12/20 07:06:44;;;;;;;5.95;2.50;;;;;;;7.34;62.59;100114.69;1918125;75;21027;-67
2021/12/20 07:09:13;;;;;;;6.28;2.00;;;;;;;7.41;62.17;100111.37;1918294;75;21574;-66
2021/12/20 07:11:44;;;;;;;3.70;1.52;;;;;;;7.46;62.12;100100.75;1917381;74;21561;-62
2021/12/20 07:14:13;;;;;;;2.47;1.02;;;;;;;7.49;62.04;100107.20;1918246;75;21457;-62
2021/12/20 07:16:42;;;;;;;3.37;0.98;;;;;;;7.53;61.81;100117.96;1918238;75;21512;-63
2021/12/20 07:19:11;;;;;;;1.82;1.30;;;;;;;7.56;61.60;100119.60;1918131;74;21516;-64
2021/12/20 07:21:40;;;;;;;4.10;1.32;;;;;;;7.59;61.44;100113.80;1918185;75;21540;-58
2021/12/20 07:24:08;;;;;;;3.98;1.27;;;;;;;7.61;61.19;100101.95;1918355;75;21006;-59
2021/12/20 07:26:38;;;;;;;3.25;1.50;;;;;;;7.66;61.25;100102.18;1918240;75;21074;-64
2021/12/20 07:29:07;;;;;;;4.12;1.52;;;;;;;7.71;61.03;100092.39;1918242;75;21132;-62
2021/12/20 07:31:35;;;;;;;0.85;0.85;;;;;;;7.77;60.96;100095.70;1918343;75;21468;-62
2021/12/20 07:34:07;;;;;;;8.93;2.90;;;;;;;7.82;61.28;100102.47;1918426;75;21056;-63
2021/12/20 07:36:35;;;;;;;6.17;2.62;;;;;;;7.87;61.26;100107.06;1918874;75;21012;-63
2021/12/20 07:39:05;;;;;;;3.65;1.80;;;;;;;7.94;61.27;100106.38;1918750;74;21110;-64
2021/12/20 07:41:34;;;;;;;6.47;1.80;;;;;;;7.95;61.37;100101.55;1918335;75;21020;-60
2021/12/20 07:44:03;;;;;;;5.05;2.27;;;;;;;7.94;61.26;100091.96;1919879;74;21478;-60
2021/12/20 07:46:32;;;;;;;2.70;1.30;;;;;;;7.93;61.00;100078.48;1899048;74;21634;-60
2021/12/20 07:49:01;;;;;;;6.78;1.60;;;;;;;7.94;61.06;100080.17;1919785;74;21502;-61
2021/12/20 07:51:29;;;;;;;8.40;2.05;;;;;;;7.95;61.28;100075.77;1928111;74;21016;-62
2021/12/20 07:53:59;;;;;;;3.67;1.40;;;;;;;7.95;61.23;100070.09;1907449;75;21453;-59
2021/12/20 07:56:28;;;;;;;2.60;1.20;;;;;;;7.93;60.91;100074.08;1889625;76;21412;-63
2021/12/20 07:58:56;;;;;;;5.20;1.75;;;;;;;7.94;60.98;100064.44;1950421;72;21405;-63
2021/12/20 08:01:26;;;;;;;2.62;1.47;;;;;;;7.93;60.86;100067.99;1875609;76;21037;-63
2021/12/20 08:03:55;;;;;;;4.47;1.80;;;;;;;7.91;61.05;100075.03;1877645;75;21416;-60
2021/12/20 08:06:24;;;;;;;8.45;1.60;;;;;;;7.94;61.26;100069.68;1875432;76;21105;-64
2021/12/20 08:08:53;;;;;;;3.47;1.90;;;;;;;7.94;61.33;100069.68;1868454;77;21539;-62
2021/12/20 08:11:22;;;;;;;3.52;1.30;;;;;;;7.96;61.56;100070.47;1875374;76;21163;-61
2021/12/20 08:13:50;;;;;;;8.68;1.62;;;;;;;7.98;61.76;100073.04;1875422;76;21112;-60
2021/12/20 08:16:22;;;;;;;5.05;1.70;;;;;;;7.98;61.89;100075.66;1868592;77;21109;-62
2021/12/20 08:18:51;;;;;;;3.00;1.57;;;;;;;7.96;62.02;100075.72;1888406;75;21457;-61
2021/12/20 08:21:21;;;;;;;8.75;1.92;;;;;;;7.99;62.15;100077.37;1911067;75;21136;-63
2021/12/20 08:23:50;;;;;;;7.25;1.60;;;;;;;8.01;62.29;100089.97;1911417;75;21155;-64
2021/12/20 08:26:19;;;;;;;4.20;1.40;;;;;;;7.94;62.52;100085.41;1903969;75;21413;-64
2021/12/20 08:28:48;;;;;;;2.58;1.40;;;;;;;7.85;62.69;100077.91;1903954;75;21136;-65
2021/12/20 08:31:17;;;;;;;3.60;1.45;;;;;;;7.62;63.67;100082.25;1904019;75;21465;-63
2021/12/20 08:33:46;;;;;;;3.35;1.50;;;;;;;7.56;63.91;100075.06;1903904;75;21070;-64
2021/12/20 08:36:14;;;;;;;2.33;1.27;;;;;;;7.47;64.25;100079.75;1906122;75;21473;-62
2021/12/20 08:38:43;;;;;;;3.65;1.50;;;;;;;7.39;64.61;100082.23;1892366;76;21115;-63
2021/12/20 08:41:12;;;;;;;3.05;1.45;;;;;;;7.29;64.98;100083.88;1987598;72;21120;-64
2021/12/20 08:43:42;;;;;;;4.15;1.57;;;;;;;7.23;65.19;100088.04;1987627;72;21453;-62
2021/12/20 08:46:13;;;;;;;2.00;1.10;;;;;;;7.22;65.33;100093.33;1987614;72;21422;-61
2021/12/20 08:48:43;;;;;;;1.30;0.90;;;;;;;7.20;65.38;100089.45;1987642;72;21047;-62
2021/12/20 08:51:12;;;;;;;2.20;1.52;;;;;;;7.12;66.06;100074.48;1987151;72;21030;-64
2021/12/20 08:53:41;;;;;;;1.40;0.90;;;;;;;7.05;66.01;100059.89;1920400;75;21516;-64
2021/12/20 08:56:11;;;;;;;3.10;0.95;;;;;;;7.03;66.19;100055.17;1987357;72;21542;-65
2021/12/20 08:58:40;;;;;;;2.35;1.00;;;;;;;7.02;66.43;100048.21;1886816;75;21465;-61
2021/12/20 09:01:09;;;;;;;3.95;1.52;;;;;;;7.04;66.59;100049.01;1920038;73;21039;-61
2021/12/20 09:03:37;;;;;;;3.12;1.50;;;;;;;7.06;66.85;100036.72;1938686;74;20999;-63
2021/12/20 09:06:08;;;;;;;2.50;1.50;;;;;;;7.12;66.84;100038.67;1963699;72;21010;-63
2021/12/20 09:08:38;;;;;;;2.27;1.25;;;;;;;7.20;67.10;100036.23;1907634;75;21023;-61
2021/12/20 09:11:07;;;;;;;5.60;1.72;;;;;;;7.33;66.94;100024.39;1952015;73;21019;-59
2021/12/20 09:13:36;;;;;;;2.27;1.22;;;;;;;7.44;67.35;100029.23;1920440;75;21104;-61
2021/12/20 09:16:05;;;;;;;5.78;1.47;;;;;;;7.51;67.42;100021.55;1987178;72;21411;-61
2021/12/20 09:18:33;;;;;;;3.50;2.02;;;;;;;7.60;67.51;100017.27;1954788;73;21450;-61
2021/12/20 09:21:02;;;;;;;3.87;2.42;;;;;;;7.69;67.54;100018.22;1987194;72;21497;-61
2021/12/20 09:23:32;;;;;;;4.20;1.87;;;;;;;7.83;67.31;100022.91;2000774;72;21010;-60
2021/12/20 09:26:02;;;;;;;8.08;3.58;;;;;;;7.96;67.19;100021.13;2000800;72;21131;-62
2021/12/20 09:28:31;;;;;;;5.55;2.37;;;;;;;8.05;67.27;100016.36;2000362;72;21526;-63
2021/12/20 09:31:00;;;;;;;5.50;1.87;;;;;;;8.05;67.32;100016.36;1954679;73;21571;-60
2021/12/20 09:33:29;;;;;;;2.08;0.80;;;;;;;8.06;67.27;100029.01;1987446;72;21414;-60
2021/12/20 09:35:58;;;;;;;0.85;0.70;;;;;;;7.98;67.18;100024.07;1954653;73;21561;-62
2021/12/20 09:38:30;;;;;;;0.98;0.80;;;;;;;7.85;67.16;100022.86;1978151;72;21370;-62
2021/12/20 09:43:47;;;;;;;2.22;0.90;;;;;;;7.80;67.08;100032.66;1965017;73;21123;-62
2021/12/20 09:46:18;;;;;;;2.47;0.90;;;;;;;7.78;67.02;100019.61;1965161;73;21026;-63
2021/12/20 09:48:50;;;;;;;0.98;0.72;;;;;;;7.69;67.24;100026.08;1973694;72;20987;-63
2021/12/20 09:51:19;;;;;;;1.40;0.70;;;;;;;7.60;67.54;100023.81;1987354;72;21026;-59
2021/12/20 09:53:49;;;;;;;2.42;0.60;;;;;;;7.41;67.92;100021.02;1954395;73;21133;-62
2021/12/20 09:56:27;;;;;;;0.90;0.80;;;;;;;7.46;68.14;100016.93;1929764;73;21055;-61
2021/12/20 09:58:59;;;;;;;1.35;0.60;;;;;;;7.64;68.27;100020.16;1952398;73;21046;-63
2021/12/20 10:01:29;;;;;;;1.00;0.75;;;;;;;7.63;68.10;100005.80;1913695;73;21108;-61
2021/12/20 10:03:58;;;;;;;0.88;0.60;;;;;;;7.67;67.93;99999.52;1880444;76;21023;-61
2021/12/20 10:06:27;;;;;;;1.62;0.93;;;;;;;7.71;68.03;100011.16;1913156;74;21042;-62
2021/12/20 10:09:03;;;;;;;1.92;0.90;;;;;;;7.81;68.16;100004.24;1880352;76;21485;-63
2021/12/20 10:11:29;;;;;;;2.08;0.78;;;;;;;7.86;68.27;100011.00;1911761;74;21054;-61
2021/12/20 10:14:09;;;;;;;5.65;0.60;;;;;;;7.89;68.51;100012.20;1923670;73;21035;-62
2021/12/20 10:16:40;;;;;;;1.17;0.72;;;;;;;7.78;68.27;100011.75;1937535;74;21058;-63
2021/12/20 10:19:29;;;;;;;2.90;0.80;;;;;;;7.69;68.09;100019.53;1951380;73;21464;-62
2021/12/20 10:22:01;;;;;;;1.12;0.57;;;;;;;7.54;67.97;100017.05;1938710;74;21414;-62
2021/12/20 10:24:35;;;;;;;1.87;0.80;;;;;;;7.33;68.43;100021.30;1918315;74;21116;-61
2021/12/20 10:27:04;;;;;;;0.85;0.50;;;;;;;7.10;68.63;100014.31;1938435;74;21174;-62
2021/12/20 10:29:36;;;;;;;0.60;0.60;;;;;;;7.03;68.86;100011.98;1949018;72;21143;-59
2021/12/20 10:32:05;;;;;;;1.25;0.70;;;;;;;7.12;68.78;100009.03;1952012;73;21473;-59
2021/12/20 10:34:36;;;;;;;1.60;1.02;;;;;;;7.10;68.64;99999.91;1952027;73;21030;-60
2021/12/20 10:37:06;;;;;;;1.60;0.90;;;;;;;7.19;68.76;100002.63;1951993;73;21030;-63
2021/12/20 10:39:45;;;;;;;0.93;0.72;;;;;;;7.25;68.57;99997.19;1951767;73;21034;-63
2021/12/20 10:42:29;;;;;;;0.85;0.70;;;;;;;7.57;68.93;99987.24;1951985;73;21786;-65
2021/12/20 10:45:19;;;;;;;1.55;0.82;;;;;;;7.96;68.55;99992.29;1951927;73;21026;-63
2021/12/20 10:47:50;;;;;;;0.82;0.80;;;;;;;7.96;68.30;99999.69;1952069;72;21030;-62
2021/12/20 10:50:25;;;;;;;1.15;0.80;;;;;;;7.80;68.06;100005.14;1987374;72;21046;-63
2021/12/20 10:52:56;;;;;;;1.02;0.70;;;;;;;7.62;68.27;100008.89;1992954;72;21524;-60
2021/12/20 10:55:43;;;;;;;1.10;0.80;;;;;;;7.45;68.32;100017.39;1990558;72;21493;-59
2021/12/20 10:58:35;;;;;;;1.02;0.70;;;;;;;7.24;68.58;100005.09;1975426;71;21011;-62
2021/12/20 11:01:48;;;;;;;0.62;0.62;;;;;;;7.19;68.71;100005.25;1997526;72;21174;-61
2021/12/20 11:04:10;;;;;;;1.30;0.70;;;;;;;7.10;68.94;100011.70;1996748;72;21526;-60
2021/12/20 11:07:01;;;;;;;0.88;0.70;;;;;;;6.91;69.23;100012.79;1997189;72;21022;-59
2021/12/20 11:09:21;;;;;;;1.25;0.68;;;;;;;6.62;69.31;100017.76;1996927;72;21003;-59
2021/12/20 11:11:53;;;;;;;2.45;0.70;;;;;;;6.46;69.54;100017.88;1997402;72;21124;-59
2021/12/20 11:14:24;;;;;;;1.25;0.80;;;;;;;6.26;69.83;100023.30;1996725;72;21519;-59
2021/12/20 11:16:57;;;;;;;1.75;0.80;;;;;;;6.19;69.99;100017.40;1993305;72;21100;-59
2021/12/20 11:19:32;;;;;;;0.85;0.82;;;;;;;6.12;70.23;100030.30;1997326;72;21073;-59
2021/12/20 11:22:09;;;;;;;0.90;0.70;;;;;;;6.08;70.33;100036.50;1997634;72;21010;-59
2021/12/20 11:24:53;;;;;;;1.22;0.90;;;;;;;6.03;70.33;100030.59;1991988;72;21092;-61
2021/12/20 11:27:29;;;;;;;1.98;0.80;;;;;;;5.97;70.35;100025.53;1954945;73;21089;-63
2021/12/20 11:29:57;;;;;;;0.95;0.60;;;;;;;5.97;70.38;100026.84;1960134;73;21026;-61
2021/12/20 11:32:28;;;;;;;1.45;0.68;;;;;;;5.86;70.62;100034.13;1959961;73;21559;-64
2021/12/20 11:34:57;;;;;;;2.20;0.95;;;;;;;5.84;70.81;100028.09;1960020;73;21088;-61
2021/12/20 11:37:28;;;;;;;1.87;0.95;;;;;;;5.96;71.02;100029.06;1960105;73;21002;-61
2021/12/20 11:39:59;;;;;;;1.17;0.75;;;;;;;5.99;70.83;100032.87;1959852;73;21027;-60
2021/12/20 11:42:28;;;;;;;1.77;0.80;;;;;;;5.96;70.69;100035.60;1959781;73;21496;-60
2021/12/20 11:44:59;;;;;;;1.70;0.70;;;;;;;5.90;70.71;100022.25;1960006;73;21462;-62
2021/12/20 11:47:40;;;;;;;1.10;0.65;;;;;;;5.87;70.74;100029.32;1959981;73;21079;-61
2021/12/20 11:50:12;;;;;;;1.05;0.60;;;;;;;5.85;70.61;100037.20;1959917;73;21031;-65
2021/12/20 11:52:43;;;;;;;0.80;0.60;;;;;;;5.78;70.79;100036.52;1957740;73;21008;-61
2021/12/20 11:55:21;;;;;;;0.98;0.57;;;;;;;5.75;70.80;100031.84;1959919;73;21092;-63
2021/12/20 11:57:52;;;;;;;0.68;0.50;;;;;;;5.75;70.72;100035.30;1940598;73;21511;-65
2021/12/20 12:00:36;;;;;;;1.70;0.70;;;;;;;5.74;70.70;100034.06;1925645;74;21092;-59
2021/12/20 12:03:08;;;;;;;1.55;0.70;;;;;;;5.74;70.71;100026.23;1927703;73;21607;-61